Time;durP1;ratioP1;P1;durP2;ratioP2;P2;SDS_P1;SDS_P2;PMS_P1;PMS_P2;Temp;Humidity;BMP_temperature;BMP_pressure;BME280_temperature;BME280_humidity;BME280_pressure;Samples;Min_cycle;Max_cycle;Signal;HPM_P1;HPM_P2
2022/03/10 00:00:45;;;;;;;3.40;2.92;;;;;;;17.10;46.56;97261.47;10296222;28;20035;-22
2022/03/10 00:05:45;;;;;;;3.40;3.05;;;;;;;17.10;46.25;97271.59;10280286;28;20046;-22
2022/03/10 00:10:45;;;;;;;4.33;3.57;;;;;;;17.10;46.86;97279.19;10291356;28;20039;-21
2022/03/10 00:15:46;;;;;;;3.80;2.80;;;;;;;17.11;47.80;97283.41;10292732;28;20031;-22
2022/03/10 00:20:46;;;;;;;5.30;3.10;;;;;;;17.12;47.79;97275.00;10293448;28;20286;-22
2022/03/10 00:25:46;;;;;;;4.37;3.27;;;;;;;17.11;47.56;97279.22;10301083;28;20043;-22
2022/03/10 00:30:47;;;;;;;4.33;3.00;;;;;;;17.11;47.73;97275.81;10292549;28;20039;-23
2022/03/10 00:35:48;;;;;;;3.40;3.07;;;;;;;17.04;47.20;97272.38;10290860;28;20061;-22
2022/03/10 00:40:48;;;;;;;4.28;3.13;;;;;;;17.15;51.00;97283.47;10291730;28;20078;-22
2022/03/10 00:45:48;;;;;;;4.05;3.10;;;;;;;17.16;51.69;97286.88;10289743;28;20396;-21
2022/03/10 00:50:49;;;;;;;3.57;2.70;;;;;;;17.15;48.72;97280.13;10285376;28;20038;-22
2022/03/10 00:55:49;;;;;;;4.30;3.03;;;;;;;17.12;48.06;97280.03;10286177;28;20035;-21
2022/03/10 01:00:51;;;;;;;3.17;2.80;;;;;;;17.12;48.44;97280.03;10296025;28;20298;-21
2022/03/10 01:05:51;;;;;;;3.58;2.75;;;;;;;17.11;47.58;97283.41;10282446;28;20118;-21
2022/03/10 01:10:52;;;;;;;4.68;3.13;;;;;;;17.10;46.52;97284.25;10293189;28;20042;-21
2022/03/10 01:15:52;;;;;;;4.20;3.17;;;;;;;17.10;46.72;97286.78;10293254;28;20096;-22
2022/03/10 01:20:54;;;;;;;3.50;2.55;;;;;;;17.08;46.56;97290.97;10286191;28;20034;-21
2022/03/10 01:25:55;;;;;;;4.03;3.10;;;;;;;17.04;46.45;97279.09;10287640;28;20038;-22
2022/03/10 01:30:55;;;;;;;2.75;2.53;;;;;;;17.08;46.50;97283.38;10275961;28;20410;-21
2022/03/10 01:35:56;;;;;;;3.78;3.10;;;;;;;17.09;46.54;97280.84;10285967;28;20035;-22
2022/03/10 01:40:56;;;;;;;3.38;2.72;;;;;;;17.08;46.37;97278.31;10275458;28;20054;-22
2022/03/10 01:45:57;;;;;;;4.23;2.70;;;;;;;17.12;51.17;97280.91;10295172;28;20031;-22
2022/03/10 01:50:58;;;;;;;5.50;2.92;;;;;;;17.16;51.71;97272.53;10282972;28;20116;-21
2022/03/10 01:55:58;;;;;;;4.78;2.70;;;;;;;17.15;49.62;97270.81;10278950;28;20100;-22
2022/03/10 02:01:00;;;;;;;3.40;2.27;;;;;;;17.10;47.60;97266.53;10289128;28;20042;-21
2022/03/10 02:06:00;;;;;;;3.03;2.47;;;;;;;17.10;47.11;97276.66;10284838;28;20027;-23
2022/03/10 02:11:01;;;;;;;4.13;2.80;;;;;;;16.98;46.98;97252.03;10277198;28;20038;-22
2022/03/10 02:21:21;;;;;;;5.22;2.97;;;;;;;17.08;46.64;97280.84;10290669;28;20084;-22
2022/03/10 02:26:21;;;;;;;5.30;3.20;;;;;;;17.08;46.42;97268.19;10290494;28;20090;-22
2022/03/10 02:31:21;;;;;;;3.70;2.70;;;;;;;17.08;47.28;97273.25;10283051;28;20500;-22
2022/03/10 02:36:22;;;;;;;4.13;2.53;;;;;;;17.07;46.92;97271.56;10290861;28;20333;-21
2022/03/10 02:41:22;;;;;;;2.87;2.30;;;;;;;17.07;47.14;97266.50;10294935;28;20042;-21
2022/03/10 02:46:22;;;;;;;3.93;2.63;;;;;;;17.07;46.86;97256.38;10297421;28;20126;-22
2022/03/10 02:51:23;;;;;;;5.70;2.90;;;;;;;17.06;50.45;97249.63;10290821;28;20026;-21
2022/03/10 02:56:23;;;;;;;4.13;2.40;;;;;;;17.13;51.62;97267.44;10282255;28;20033;-22
2022/03/10 03:01:23;;;;;;;3.63;2.87;;;;;;;17.15;51.13;97259.88;10287217;28;20034;-22
2022/03/10 03:06:24;;;;;;;3.37;2.60;;;;;;;17.11;48.16;97253.06;10297404;28;20030;-21
2022/03/10 03:11:24;;;;;;;3.27;2.47;;;;;;;17.08;47.51;97247.97;10287976;28;20076;-21
2022/03/10 03:16:24;;;;;;;3.50;2.73;;;;;;;17.02;46.83;97247.88;10279830;28;20027;-22
2022/03/10 03:21:25;;;;;;;4.93;2.30;;;;;;;17.05;46.40;97250.44;10297310;28;20125;-23
2022/03/10 03:26:25;;;;;;;3.35;2.60;;;;;;;17.06;46.61;97254.69;10294804;28;20368;-22
2022/03/10 03:31:26;;;;;;;3.20;2.87;;;;;;;17.07;47.69;97256.38;10289786;28;20558;-23
2022/03/10 03:36:26;;;;;;;5.03;3.13;;;;;;;17.07;47.59;97253.84;10298874;28;20286;-23
2022/03/10 03:41:26;;;;;;;2.90;2.60;;;;;;;17.06;47.20;97247.94;10283438;28;20031;-23
2022/03/10 03:46:27;;;;;;;3.25;2.58;;;;;;;17.07;46.87;97253.84;10297617;28;20385;-22
2022/03/10 03:51:28;;;;;;;3.47;2.33;;;;;;;17.06;47.14;97249.63;10296345;28;20036;-22
2022/03/10 03:56:28;;;;;;;2.83;2.42;;;;;;;17.07;46.83;97248.78;10299299;28;20285;-22
2022/03/10 04:01:29;;;;;;;4.00;3.13;;;;;;;17.06;51.50;97247.09;10294927;28;20414;-23
2022/03/10 04:06:29;;;;;;;5.63;2.42;;;;;;;17.12;51.69;97267.41;10300102;28;20304;-22
2022/03/10 04:11:30;;;;;;;5.87;3.03;;;;;;;17.12;50.23;97260.66;10296597;28;20063;-22
2022/03/10 04:16:30;;;;;;;2.95;2.65;;;;;;;17.09;47.32;97269.91;10283156;28;20023;-23
2022/03/10 04:21:31;;;;;;;2.90;2.70;;;;;;;17.07;46.97;97274.09;10281167;28;20139;-22
2022/03/10 04:26:32;;;;;;;2.58;2.35;;;;;;;17.06;46.63;97277.47;10288598;28;20035;-22
2022/03/10 04:31:32;;;;;;;5.53;3.10;;;;;;;17.04;46.57;97281.63;10294924;28;20035;-22
2022/03/10 04:36:33;;;;;;;2.97;2.38;;;;;;;17.05;46.87;97284.19;10297604;28;20555;-22
2022/03/10 04:41:34;;;;;;;2.40;2.20;;;;;;;17.04;46.88;97287.53;10293508;28;20086;-21
2022/03/10 04:46:34;;;;;;;2.80;2.42;;;;;;;17.05;47.22;97288.38;10302425;28;20042;-23
2022/03/10 04:51:35;;;;;;;5.03;2.30;;;;;;;17.05;47.46;97278.25;10298814;28;20495;-22
2022/03/10 04:56:35;;;;;;;4.78;2.83;;;;;;;17.05;46.71;97283.31;10289666;28;20057;-23
2022/03/10 05:01:35;;;;;;;4.50;2.43;;;;;;;17.04;47.53;97279.09;10273339;28;21361;-22
2022/03/10 05:06:36;;;;;;;2.77;2.27;;;;;;;17.13;49.92;97289.34;10285945;28;20046;-22
2022/03/10 05:11:36;;;;;;;4.78;2.80;;;;;;;17.16;51.29;97291.94;10276830;28;20305;-23
2022/03/10 05:16:36;;;;;;;4.37;2.40;;;;;;;17.19;50.12;97286.91;10284464;28;20035;-20
2022/03/10 05:21:37;;;;;;;3.70;2.23;;;;;;;17.15;47.33;97275.06;10287540;28;20054;-22
2022/03/10 05:26:38;;;;;;;2.97;2.40;;;;;;;17.08;47.02;97266.50;10293305;28;20038;-21
2022/03/10 05:31:39;;;;;;;2.95;2.30;;;;;;;17.15;46.90;97282.66;10276480;28;20039;-21
2022/03/10 05:36:40;;;;;;;9.13;4.95;;;;;;;17.02;44.86;97273.16;10295249;28;20462;-21
2022/03/10 05:41:40;;;;;;;11.07;8.15;;;;;;;16.85;42.48;97272.06;10292934;28;20032;-21
2022/03/10 05:46:41;;;;;;;6.93;5.53;;;;;;;16.87;44.10;97278.84;10283885;28;20495;-21
2022/03/10 05:51:41;;;;;;;4.10;3.23;;;;;;;17.01;46.03;97277.38;10283965;28;20038;-21
2022/03/10 05:56:42;;;;;;;6.60;4.40;;;;;;;17.06;46.47;97270.69;10276548;28;20039;-21
2022/03/10 06:01:42;;;;;;;9.55;4.70;;;;;;;17.06;45.22;97274.91;10284032;28;20045;-21
2022/03/10 06:06:46;;;;;;;5.10;3.80;;;;;;;17.06;46.12;97270.69;10281825;28;20115;-21
2022/03/10 06:11:46;;;;;;;8.27;5.22;;;;;;;17.09;46.79;97267.38;10296336;28;20466;-21
2022/03/10 06:16:46;;;;;;;8.90;6.57;;;;;;;17.14;48.26;97269.13;10293189;28;20066;-21
2022/03/10 06:21:48;;;;;;;10.57;6.00;;;;;;;17.18;48.60;97270.88;10269349;28;20082;-21
2022/03/10 06:26:48;;;;;;;8.43;5.32;;;;;;;17.17;46.42;97273.38;10281253;28;20344;-20
2022/03/10 06:31:51;;;;;;;4.40;3.60;;;;;;;17.13;46.12;97277.53;10288441;28;20039;-21
2022/03/10 06:36:51;;;;;;;6.60;3.30;;;;;;;17.09;45.99;97265.66;10278325;28;20395;-21
2022/03/10 06:41:52;;;;;;;3.83;2.60;;;;;;;17.10;46.18;97267.41;10268327;28;20038;-21
2022/03/10 06:46:52;;;;;;;11.07;4.90;;;;;;;17.01;45.67;97272.34;10274234;28;20108;-21
2022/03/10 06:51:53;;;;;;;3.87;3.27;;;;;;;17.06;45.78;97269.88;10273814;28;20300;-21
2022/03/10 06:56:53;;;;;;;5.68;3.50;;;;;;;17.03;46.34;97254.63;10277184;28;20061;-20
2022/03/10 07:01:54;;;;;;;5.72;3.60;;;;;;;17.07;45.79;97276.63;10282096;28;20041;-21
2022/03/10 07:06:54;;;;;;;4.20;3.03;;;;;;;17.07;45.96;97266.50;10269128;28;20491;-21
2022/03/10 07:11:54;;;;;;;3.88;3.35;;;;;;;17.08;46.02;97263.97;10276356;28;20038;-23
2022/03/10 07:16:55;;;;;;;5.50;2.97;;;;;;;17.00;46.12;97260.47;10279222;28;20034;-21
2022/03/10 07:21:56;;;;;;;4.63;2.70;;;;;;;17.07;46.09;97253.84;10286695;28;20286;-22
2022/03/10 07:26:56;;;;;;;7.07;4.40;;;;;;;17.14;49.84;97268.28;10282830;28;20042;-21
2022/03/10 07:31:57;;;;;;;6.57;4.07;;;;;;;17.09;49.80;97257.25;10298868;28;20033;-21
2022/03/10 07:36:57;;;;;;;5.63;2.70;;;;;;;17.10;46.60;97256.41;10298709;28;20026;-20
2022/03/10 07:41:58;;;;;;;6.60;3.65;;;;;;;17.06;46.00;97262.28;10293414;28;20034;-20
2022/03/10 07:46:58;;;;;;;4.93;3.53;;;;;;;17.04;46.11;97263.91;10307116;28;20034;-20
2022/03/10 07:52:00;;;;;;;4.03;3.17;;;;;;;17.03;46.12;97264.75;10300281;28;20447;-20
2022/03/10 07:57:01;;;;;;;4.57;3.45;;;;;;;17.03;46.11;97270.66;10298277;28;20026;-19
2022/03/10 08:02:01;;;;;;;6.75;3.70;;;;;;;17.02;46.33;97268.09;10300861;28;20042;-19
2022/03/10 08:07:01;;;;;;;4.73;3.80;;;;;;;17.01;47.32;97276.53;10292109;28;20059;-20
2022/03/10 08:12:02;;;;;;;7.53;4.65;;;;;;;17.05;46.87;97284.19;10312455;28;20312;-20
2022/03/10 08:17:03;;;;;;;5.00;3.42;;;;;;;17.05;46.24;97280.78;10311799;28;20057;-20
2022/03/10 08:22:08;;;;;;;7.70;3.90;;;;;;;17.04;46.36;97289.19;10306790;28;20519;-20
2022/03/10 08:27:08;;;;;;;12.40;5.22;;;;;;;17.04;47.81;97279.09;10301255;28;20038;-20
2022/03/10 08:32:09;;;;;;;15.18;6.10;;;;;;;17.05;50.18;97261.41;10305985;28;20035;-20
2022/03/10 08:37:09;;;;;;;18.42;9.30;;;;;;;17.07;42.17;97274.09;10309839;28;20109;-20
2022/03/10 08:42:10;;;;;;;17.20;10.40;;;;;;;16.94;39.55;97267.13;10297965;28;20558;-20
2022/03/10 08:47:10;;;;;;;12.60;7.15;;;;;;;17.02;45.59;97263.91;10304526;28;20027;-20
2022/03/10 08:52:11;;;;;;;10.87;5.20;;;;;;;17.00;46.22;97249.53;10305031;28;20557;-20
2022/03/10 08:57:11;;;;;;;17.95;7.18;;;;;;;17.04;46.48;97258.84;10299318;28;20369;-21
2022/03/10 09:02:12;;;;;;;17.97;7.10;;;;;;;17.24;46.61;97252.41;10294277;28;20035;-20
2022/03/10 09:07:12;;;;;;;24.00;6.75;;;;;;;17.04;46.40;97231.88;10290393;28;20057;-20
2022/03/10 09:12:13;;;;;;;15.20;7.53;;;;;;;17.14;46.85;97245.53;10280230;28;20053;-20
2022/03/10 09:17:13;;;;;;;18.87;6.97;;;;;;;17.14;46.70;97243.00;10298416;28;20380;-20
2022/03/10 09:22:14;;;;;;;11.77;6.15;;;;;;;17.13;47.42;97231.16;10301545;28;20293;-20
2022/03/10 09:27:15;;;;;;;17.05;6.45;;;;;;;17.16;46.51;97226.16;10291852;28;20037;-21
2022/03/10 09:32:15;;;;;;;14.37;6.03;;;;;;;17.13;46.52;97213.44;10294674;28;20041;-21
2022/03/10 09:37:15;;;;;;;18.53;5.73;;;;;;;17.12;46.77;97210.06;10304411;28;20054;-20
2022/03/10 09:42:20;;;;;;;15.93;8.70;;;;;;;17.20;47.25;97203.44;10292833;28;20306;-20
2022/03/10 09:47:21;;;;;;;24.38;9.82;;;;;;;17.28;46.14;97204.38;10296243;28;20278;-20
2022/03/10 09:52:22;;;;;;;13.82;8.02;;;;;;;17.21;46.05;97196.69;10297351;28;20034;-20
2022/03/10 09:57:23;;;;;;;13.45;7.85;;;;;;;17.16;46.46;97190.72;10295854;28;20086;-27
2022/03/10 10:02:24;;;;;;;20.08;5.15;;;;;;;17.15;46.37;97183.97;10297040;28;20061;-20
2022/03/10 10:07:29;;;;;;;17.98;6.93;;;;;;;17.11;46.19;97164.50;10300929;28;20034;-20
2022/03/10 10:12:30;;;;;;;11.98;5.28;;;;;;;17.15;46.59;97169.63;10289292;28;20030;-20
2022/03/10 10:17:32;;;;;;;12.15;5.30;;;;;;;17.16;46.10;97158.66;10303534;28;20053;-23
2022/03/10 10:22:33;;;;;;;17.38;7.70;;;;;;;17.18;46.35;97158.69;10298583;28;20047;-20
2022/03/10 10:27:34;;;;;;;15.27;6.27;;;;;;;17.15;46.02;97153.59;10286057;28;20039;-20
2022/03/10 10:32:55;;;;;;;13.75;6.05;;;;;;;17.14;45.86;97152.75;10299500;28;20290;-20
2022/03/10 10:37:58;;;;;;;10.93;5.60;;;;;;;17.17;46.09;97150.25;10301096;28;20058;-21
2022/03/10 10:43:02;;;;;;;16.48;6.00;;;;;;;17.13;45.60;97135.00;10296676;28;20572;-20
2022/03/10 10:48:07;;;;;;;17.05;8.02;;;;;;;17.16;45.47;97135.06;10293708;28;20033;-20
2022/03/10 10:53:08;;;;;;;17.13;9.10;;;;;;;17.19;44.80;97128.38;10296422;28;20030;-20
2022/03/10 10:58:13;;;;;;;17.85;9.18;;;;;;;17.16;45.74;97117.34;10294524;28;20027;-21
2022/03/10 11:03:23;;;;;;;14.77;6.50;;;;;;;17.23;45.80;97116.59;10297907;28;20038;-20
2022/03/10 11:08:26;;;;;;;9.98;6.75;;;;;;;17.18;46.06;97115.69;10289006;28;20141;-20
2022/03/10 11:13:28;;;;;;;14.70;7.72;;;;;;;17.13;45.96;97117.28;10293959;28;20035;-21
2022/03/10 11:18:29;;;;;;;15.52;7.55;;;;;;;17.02;46.19;97116.34;10296469;28;20089;-21
2022/03/10 11:23:52;;;;;;;12.63;7.22;;;;;;;17.03;46.45;97103.72;10294035;28;20089;-20
2022/03/10 11:28:55;;;;;;;24.02;9.95;;;;;;;16.99;45.74;97096.91;10292217;28;20043;-20
2022/03/10 11:33:56;;;;;;;11.07;6.82;;;;;;;17.01;46.76;97096.94;10287485;28;20026;-20
2022/03/10 11:39:08;;;;;;;41.35;10.02;;;;;;;16.98;46.01;97095.22;10291350;28;20039;-20
2022/03/10 11:44:11;;;;;;;12.25;7.05;;;;;;;16.94;47.00;97073.25;10307876;28;20061;-20
2022/03/10 11:49:14;;;;;;;13.23;6.00;;;;;;;17.00;47.24;97092.72;10293433;28;20081;-19
2022/03/10 11:54:19;;;;;;;8.68;5.30;;;;;;;17.02;47.19;97088.50;10288234;28;20034;-19
2022/03/10 11:59:31;;;;;;;11.73;6.07;;;;;;;17.12;47.79;97087.78;10294622;28;20037;-20
2022/03/10 12:04:39;;;;;;;16.02;6.30;;;;;;;17.15;47.53;97086.13;10283985;28;21387;-20
2022/03/10 12:09:41;;;;;;;16.70;6.57;;;;;;;17.07;47.84;97075.06;10301579;28;20027;-19
2022/03/10 12:14:42;;;;;;;13.35;5.60;;;;;;;17.03;47.75;97077.56;10294080;28;20740;-21
2022/03/10 12:20:11;;;;;;;12.48;5.93;;;;;;;17.01;47.88;97074.16;10282773;28;20308;-20
2022/03/10 12:25:20;;;;;;;11.05;5.53;;;;;;;17.01;48.12;97069.13;10286790;28;20507;-20
2022/03/10 12:30:23;;;;;;;8.13;4.47;;;;;;;16.94;48.02;97062.28;10285343;28;20609;-20
2022/03/10 12:35:29;;;;;;;11.82;5.40;;;;;;;17.04;48.09;97057.34;10287121;28;20102;-21
2022/03/10 12:40:32;;;;;;;9.77;6.13;;;;;;;17.05;48.27;97050.59;10297632;28;20034;-20
2022/03/10 12:45:41;;;;;;;9.50;5.22;;;;;;;17.05;48.07;97050.59;10290277;28;20039;-20
2022/03/10 12:50:46;;;;;;;13.05;6.75;;;;;;;17.04;48.30;97041.31;10292422;28;20031;-20
2022/03/10 12:55:55;;;;;;;11.60;5.20;;;;;;;17.05;48.16;97037.94;10294089;28;20035;-20
2022/03/10 13:01:04;;;;;;;8.70;5.60;;;;;;;17.00;47.94;97035.38;10287793;28;20062;-20
2022/03/10 13:06:08;;;;;;;8.82;5.95;;;;;;;17.11;47.98;97027.91;10277927;28;20078;-20
2022/03/10 13:11:11;;;;;;;8.88;5.50;;;;;;;17.10;48.23;97005.97;10290464;28;20074;-20
2022/03/10 13:16:11;;;;;;;12.38;6.57;;;;;;;17.16;48.40;97018.69;10299797;28;20022;-20
2022/03/10 13:21:11;;;;;;;10.90;8.03;;;;;;;17.14;48.76;97012.78;10283884;28;20057;-21
2022/03/10 13:26:12;;;;;;;16.07;7.93;;;;;;;17.11;48.66;97000.94;10290712;28;20046;-20
2022/03/10 13:31:13;;;;;;;13.93;8.83;;;;;;;17.11;48.98;96995.00;10294941;28;20274;-21
2022/03/10 13:36:14;;;;;;;17.13;9.27;;;;;;;17.12;49.22;96991.66;10299475;28;20035;-20
2022/03/10 13:41:15;;;;;;;18.27;7.68;;;;;;;17.10;49.32;96993.31;10295058;28;20030;-20
2022/03/10 13:46:20;;;;;;;14.63;7.53;;;;;;;17.10;48.93;96989.13;10298148;28;20038;-21
2022/03/10 13:51:22;;;;;;;16.25;8.60;;;;;;;17.11;49.29;96979.84;10303078;28;20417;-21
2022/03/10 13:56:30;;;;;;;16.38;8.20;;;;;;;17.10;49.82;96973.09;10293206;28;20038;-21
2022/03/10 14:01:34;;;;;;;20.67;10.43;;;;;;;17.09;47.98;96966.34;10291862;28;20042;-20
2022/03/10 14:06:42;;;;;;;35.55;19.38;;;;;;;16.94;42.30;96941.75;10279583;28;20059;-20
2022/03/10 14:11:42;;;;;;;32.95;16.10;;;;;;;17.03;42.79;96959.53;10293864;28;20427;-21
2022/03/10 14:16:54;;;;;;;24.13;10.73;;;;;;;17.13;48.90;96952.88;10282634;28;20034;-21
2022/03/10 14:21:57;;;;;;;24.48;10.93;;;;;;;17.11;48.52;96945.28;10303729;28;20037;-20
2022/03/10 14:27:10;;;;;;;17.70;9.15;;;;;;;17.11;48.12;96945.28;10293619;28;20094;-20
2022/03/10 14:32:12;;;;;;;16.38;9.55;;;;;;;17.09;47.93;96946.91;10294579;28;20035;-20
2022/03/10 14:37:12;;;;;;;20.70;8.63;;;;;;;17.10;48.14;96942.72;10304551;28;20033;-20
2022/03/10 14:42:12;;;;;;;17.10;8.77;;;;;;;17.07;48.53;96932.59;10292772;28;20049;-20
2022/03/10 14:47:13;;;;;;;13.90;8.17;;;;;;;17.08;48.31;96929.22;10290037;28;20034;-21
2022/03/10 14:52:17;;;;;;;13.80;7.07;;;;;;;17.07;48.44;96923.31;10299789;28;20034;-21
2022/03/10 14:57:17;;;;;;;14.82;7.10;;;;;;;17.06;48.39;96913.19;10296067;28;20270;-21
2022/03/10 15:02:18;;;;;;;13.23;9.10;;;;;;;17.03;47.48;96910.63;10293166;28;20038;-20
2022/03/10 15:07:19;;;;;;;10.07;7.03;;;;;;;17.10;47.71;96907.31;10296884;28;20038;-20
2022/03/10 15:12:19;;;;;;;16.67;9.63;;;;;;;17.06;45.96;96896.31;10288695;28;20483;-19
2022/03/10 15:17:20;;;;;;;10.93;5.90;;;;;;;17.25;47.91;96892.25;10283512;28;20027;-21
2022/03/10 15:22:20;;;;;;;35.83;15.20;;;;;;;17.29;43.55;96887.22;10284509;28;20030;-20
2022/03/10 15:47:06;;;;;;;29.55;16.02;;;;;;;17.47;41.28;96873.88;10514793;28;20380;-21
2022/03/10 15:52:08;;;;;;;38.73;18.00;;;;;;;17.42;41.34;96871.31;10467446;28;20118;-22
2022/03/10 15:57:08;;;;;;;36.20;22.48;;;;;;;17.73;35.42;96877.44;10489034;28;20924;-22
2022/03/10 16:02:10;;;;;;;34.33;19.85;;;;;;;17.36;40.19;96860.31;10464863;28;20515;-22
2022/03/10 16:07:10;;;;;;;28.40;17.98;;;;;;;17.42;38.32;96873.00;10485629;28;20033;-22
2022/03/10 16:12:11;;;;;;;24.23;13.63;;;;;;;17.32;41.79;96867.00;10472551;28;20056;-21
2022/03/10 16:17:14;;;;;;;35.38;19.77;;;;;;;17.49;39.62;96862.09;10456890;28;20078;-22
2022/03/10 16:22:14;;;;;;;40.45;23.98;;;;;;;17.62;35.22;96868.91;10501849;28;20460;-21
2022/03/10 16:27:14;;;;;;;35.42;22.83;;;;;;;17.69;35.76;96875.69;10483270;28;20115;-22
2022/03/10 16:32:15;;;;;;;39.70;24.57;;;;;;;17.77;34.27;96874.06;10489418;28;20052;-22
2022/03/10 16:37:15;;;;;;;33.83;21.10;;;;;;;17.62;35.70;96879.03;10474940;28;20452;-21
2022/03/10 16:42:16;;;;;;;33.20;18.10;;;;;;;17.10;38.96;96887.06;10497790;28;20286;-21
2022/03/10 16:47:17;;;;;;;42.28;25.10;;;;;;;16.81;36.88;96886.00;10463183;28;20036;-23
2022/03/10 16:52:19;;;;;;;37.85;17.25;;;;;;;16.91;40.42;96886.06;10449301;28;20284;-22
2022/03/10 16:57:19;;;;;;;11.18;7.45;;;;;;;17.07;44.83;96882.00;10460401;28;20037;-22
2022/03/10 17:02:21;;;;;;;15.18;9.25;;;;;;;17.07;43.35;96889.59;10460403;28;20086;-22
2022/03/10 17:07:22;;;;;;;9.73;7.07;;;;;;;17.13;45.47;96887.94;10458472;28;20081;-23
2022/03/10 17:12:22;;;;;;;17.60;7.90;;;;;;;17.15;45.55;96890.50;10464201;28;20085;-22
2022/03/10 17:17:23;;;;;;;13.10;7.43;;;;;;;17.16;45.50;96892.19;10460595;28;20420;-22
2022/03/10 17:22:23;;;;;;;11.63;7.47;;;;;;;17.16;45.50;96894.72;10452588;28;20044;-22
2022/03/10 17:27:26;;;;;;;13.50;7.18;;;;;;;17.13;45.88;96892.16;10439397;28;20831;-22
2022/03/10 17:32:26;;;;;;;10.23;6.28;;;;;;;17.15;45.70;96898.09;10435210;28;20104;-22
2022/03/10 17:37:27;;;;;;;9.63;6.47;;;;;;;17.10;46.00;96897.19;10465998;28;20562;-22
2022/03/10 17:42:32;;;;;;;11.85;6.10;;;;;;;17.12;45.87;96900.56;10424363;28;20029;-22
2022/03/10 17:47:33;;;;;;;10.27;6.65;;;;;;;17.13;46.00;96912.38;10429254;28;20032;-23
2022/03/10 17:52:34;;;;;;;8.80;5.20;;;;;;;17.11;46.15;96909.00;10414647;28;20033;-22
2022/03/10 17:57:34;;;;;;;12.27;5.38;;;;;;;17.10;46.04;96910.69;10452273;28;20515;-22
2022/03/10 18:02:35;;;;;;;9.13;5.13;;;;;;;17.11;46.35;96909.88;10457080;28;20112;-22
2022/03/10 18:07:35;;;;;;;19.53;9.80;;;;;;;16.87;41.05;96914.72;10431690;28;20802;-22
2022/03/10 18:12:36;;;;;;;15.70;8.60;;;;;;;17.07;45.15;96909.81;10461635;28;20374;-22
2022/03/10 18:17:36;;;;;;;18.17;7.30;;;;;;;17.09;44.94;96908.16;10463776;28;20787;-22
2022/03/10 18:22:37;;;;;;;9.32;5.45;;;;;;;17.07;45.85;96907.28;10439048;28;20314;-21
2022/03/10 18:27:38;;;;;;;13.50;6.32;;;;;;;17.07;45.71;96897.19;10462783;28;20020;-22
2022/03/10 18:32:39;;;;;;;11.20;5.57;;;;;;;17.09;45.88;96911.50;10465257;28;20033;-22
2022/03/10 18:37:39;;;;;;;12.88;7.00;;;;;;;17.08;46.17;96898.88;10448518;28;20119;-21
2022/03/10 18:42:42;;;;;;;5.55;4.22;;;;;;;17.10;46.23;96892.13;10457140;28;20036;-22
2022/03/10 18:47:42;;;;;;;12.23;5.90;;;;;;;17.08;46.18;96884.53;10427345;28;20040;-22
2022/03/10 18:52:43;;;;;;;7.25;4.70;;;;;;;17.12;46.57;96891.31;10462824;28;20083;-22
2022/03/10 18:57:43;;;;;;;8.68;5.28;;;;;;;17.14;46.29;96893.88;10469133;28;20072;-22
2022/03/10 19:02:45;;;;;;;17.08;5.88;;;;;;;17.18;46.67;96885.44;10454670;28;20033;-22
2022/03/10 19:07:46;;;;;;;12.18;5.03;;;;;;;17.14;46.24;96882.06;10425862;28;20032;-26
2022/03/10 19:12:46;;;;;;;9.03;4.80;;;;;;;17.16;46.24;96893.03;10453109;28;20036;-29
2022/03/10 19:17:46;;;;;;;6.80;3.90;;;;;;;17.13;46.34;96876.97;10459696;28;20280;-22
2022/03/10 19:22:50;;;;;;;8.47;5.03;;;;;;;17.12;46.34;96881.19;10451190;28;20297;-22
2022/03/10 19:27:51;;;;;;;5.82;4.10;;;;;;;17.12;46.28;96875.28;10458050;28;20745;-22
2022/03/10 19:32:52;;;;;;;7.50;4.35;;;;;;;17.11;46.54;96878.66;10454338;28;20028;-22
2022/03/10 19:37:54;;;;;;;6.95;3.80;;;;;;;17.11;46.31;96874.44;10425014;28;20044;-23
2022/03/10 19:42:54;;;;;;;8.98;4.43;;;;;;;17.09;46.61;96878.63;10446052;28;20028;-22
2022/03/10 19:47:55;;;;;;;6.03;4.28;;;;;;;17.10;46.45;96872.75;10447583;28;20036;-22
2022/03/10 19:53:00;;;;;;;17.17;6.03;;;;;;;17.15;47.46;96880.38;10433586;28;20503;-22
2022/03/10 19:58:00;;;;;;;10.90;5.75;;;;;;;17.21;47.65;96877.88;10438215;28;20507;-22
2022/03/10 20:03:02;;;;;;;9.80;4.00;;;;;;;17.17;46.55;96881.22;10423555;28;20040;-22
2022/03/10 20:08:02;;;;;;;7.75;4.00;;;;;;;17.16;46.56;96882.06;10429621;28;20048;-24
2022/03/10 20:13:03;;;;;;;9.73;3.92;;;;;;;17.15;47.00;96876.16;10426008;28;20055;-23
2022/03/10 20:18:05;;;;;;;7.75;3.78;;;;;;;17.17;46.39;96868.59;10409583;28;20083;-22
2022/03/10 20:23:06;;;;;;;5.30;3.28;;;;;;;17.14;46.35;96863.50;10450986;28;20039;-23
2022/03/10 20:28:06;;;;;;;4.75;3.47;;;;;;;17.12;46.39;96870.22;10466517;28;20047;-23
2022/03/10 20:33:10;;;;;;;7.32;3.53;;;;;;;17.10;46.50;96876.97;10452031;28;20037;-22
2022/03/10 20:38:10;;;;;;;4.95;3.13;;;;;;;17.11;46.59;96873.59;10437108;28;20111;-23
2022/03/10 20:43:12;;;;;;;4.47;3.20;;;;;;;17.11;46.33;96878.66;10471390;28;20442;-22
2022/03/10 20:48:14;;;;;;;5.80;3.42;;;;;;;17.10;46.52;96874.44;10441517;28;20033;-22
2022/03/10 20:53:15;;;;;;;11.23;5.55;;;;;;;17.20;47.49;96883.78;10458169;28;20036;-22
2022/03/10 20:58:17;;;;;;;13.13;4.90;;;;;;;17.23;47.87;96874.53;10467966;28;20036;-22
2022/03/10 21:03:18;;;;;;;7.57;3.78;;;;;;;17.23;47.15;96874.53;10462283;28;20032;-22
2022/03/10 21:08:19;;;;;;;8.25;3.67;;;;;;;17.21;47.08;96867.75;10458223;28;20039;-21
2022/03/10 21:13:20;;;;;;;5.03;3.70;;;;;;;17.18;46.41;96865.22;10455386;28;20029;-23
2022/03/10 21:18:20;;;;;;;6.80;4.25;;;;;;;17.16;46.54;96861.84;10443052;28;20033;-21
2022/03/10 21:23:21;;;;;;;6.27;3.53;;;;;;;17.13;46.54;96856.72;10457147;28;20411;-23
2022/03/10 21:28:22;;;;;;;6.85;3.35;;;;;;;17.15;46.82;96855.09;10460782;28;20290;-24
2022/03/10 21:33:23;;;;;;;6.35;3.05;;;;;;;17.13;46.79;96852.53;10468337;28;20505;-22
2022/03/10 21:38:24;;;;;;;9.10;3.83;;;;;;;17.04;46.78;96826.31;10451093;28;20140;-22
2022/03/10 21:43:25;;;;;;;6.50;3.58;;;;;;;17.12;46.77;96842.41;10469578;28;20024;-22
2022/03/10 21:48:25;;;;;;;7.43;3.70;;;;;;;17.12;46.62;96839.88;10465502;28;20044;-22
2022/03/10 21:53:25;;;;;;;6.03;3.08;;;;;;;17.11;46.70;96838.19;10456881;28;20290;-23
2022/03/10 21:58:26;;;;;;;6.25;4.00;;;;;;;17.16;47.54;96836.53;10464048;28;20465;-22
2022/03/10 22:03:26;;;;;;;6.10;3.13;;;;;;;17.18;47.60;96827.25;10461390;28;20542;-22
2022/03/10 22:08:27;;;;;;;4.80;3.05;;;;;;;17.13;46.85;96831.44;10458335;28;20369;-22
2022/03/10 22:13:27;;;;;;;6.07;3.33;;;;;;;17.09;46.95;96825.50;10456890;28;20390;-22
2022/03/10 22:18:28;;;;;;;4.28;3.13;;;;;;;17.08;46.86;96823.00;10458849;28;20046;-22
2022/03/10 22:23:28;;;;;;;5.13;3.15;;;;;;;17.08;46.53;96830.56;10459533;28;20034;-23
2022/03/10 22:28:29;;;;;;;3.87;3.00;;;;;;;17.07;46.83;96831.41;10425151;28;20079;-22
2022/03/10 22:33:30;;;;;;;6.18;2.78;;;;;;;17.06;46.55;96830.56;10429511;28;20366;-22
2022/03/10 22:38:31;;;;;;;4.20;2.60;;;;;;;17.06;46.21;96817.91;10449465;28;20584;-22
2022/03/10 22:43:31;;;;;;;3.63;2.65;;;;;;;17.06;46.91;96822.13;10424068;28;20287;-23
2022/03/10 22:48:32;;;;;;;3.72;2.63;;;;;;;17.04;47.38;96821.25;10462108;28;20039;-22
2022/03/10 22:58:51;;;;;;;5.55;3.65;;;;;;;17.05;47.27;96808.63;10461118;28;20120;-21
2022/03/10 23:03:52;;;;;;;4.55;2.95;;;;;;;17.05;47.48;96807.78;10458111;28;20024;-22
2022/03/10 23:08:53;;;;;;;5.15;3.30;;;;;;;17.15;47.37;96809.56;10460420;28;20612;-22
2022/03/10 23:13:53;;;;;;;3.70;2.92;;;;;;;17.11;46.61;96800.22;10454888;28;20403;-22
2022/03/10 23:18:53;;;;;;;3.95;2.35;;;;;;;17.13;46.33;96791.81;10449831;28;20614;-22
2022/03/10 23:23:54;;;;;;;3.78;2.75;;;;;;;17.15;46.50;96812.91;10453770;28;20067;-22
2022/03/10 23:28:54;;;;;;;3.60;3.00;;;;;;;17.13;46.52;96808.66;10456597;28;20075;-23
2022/03/10 23:33:55;;;;;;;2.88;2.58;;;;;;;17.15;46.20;96804.50;10448003;28;20296;-22
2022/03/10 23:38:56;;;;;;;4.63;3.28;;;;;;;17.11;46.44;96807.81;10454293;28;20518;-22
2022/03/10 23:43:56;;;;;;;3.63;2.63;;;;;;;17.10;46.42;96806.13;10433051;28;20025;-22